sensor_id;sensor_type;location;lat;lon;timestamp;pressure;altitude;pressure_sealevel;temperature
69364;BMP280;56526;55.406;86.130;2022-10-16T18:23:28;98614.06;;;7.57
69364;BMP280;56526;55.406;86.130;2022-10-16T18:25:55;98607.25;;;7.55
69364;BMP280;56526;55.406;86.130;2022-10-16T18:28:21;98597.50;;;7.56
69364;BMP280;56526;55.406;86.130;2022-10-16T18:30:58;98599.22;;;7.61
69364;BMP280;56526;55.406;86.130;2022-10-16T18:33:34;98603.81;;;7.69
69364;BMP280;56526;55.406;86.130;2022-10-16T18:36:02;98591.13;;;7.71
69364;BMP280;56526;55.406;86.130;2022-10-16T18:38:31;98590.56;;;7.74
69364;BMP280;56526;55.406;86.130;2022-10-16T18:41:05;98584.53;;;7.73
69364;BMP280;56526;55.406;86.130;2022-10-16T18:43:33;98581.91;;;7.73
69364;BMP280;56526;55.406;86.130;2022-10-16T18:46:02;98585.03;;;7.75
69364;BMP280;56526;55.406;86.130;2022-10-16T18:48:32;98582.59;;;7.79
69364;BMP280;56526;55.406;86.130;2022-10-16T18:51:12;98570.69;;;7.81
69364;BMP280;56526;55.406;86.130;2022-10-16T18:54:01;98566.38;;;7.85
69364;BMP280;56526;55.406;86.130;2022-10-16T18:56:29;98570.56;;;7.86
69364;BMP280;56526;55.406;86.130;2022-10-16T18:58:58;98558.97;;;7.87
69364;BMP280;56526;55.406;86.130;2022-10-16T19:01:28;98552.13;;;7.86
69364;BMP280;56526;55.406;86.130;2022-10-16T19:03:58;98558.00;;;7.83
69364;BMP280;56526;55.406;86.130;2022-10-16T19:06:34;98550.97;;;7.79
69364;BMP280;56526;55.406;86.130;2022-10-16T19:09:02;98538.09;;;7.77
69364;BMP280;56526;55.406;86.130;2022-10-16T19:11:29;98548.94;;;7.76
69364;BMP280;56526;55.406;86.130;2022-10-16T19:13:56;98536.06;;;7.74
69364;BMP280;56526;55.406;86.130;2022-10-16T19:16:28;98533.72;;;7.73
69364;BMP280;56526;55.406;86.130;2022-10-16T19:18:58;98527.66;;;7.72
69364;BMP280;56526;55.406;86.130;2022-10-16T19:21:27;98524.75;;;7.74
69364;BMP280;56526;55.406;86.130;2022-10-16T19:23:56;98527.88;;;7.76
69364;BMP280;56526;55.406;86.130;2022-10-16T19:26:24;98530.78;;;7.74
69364;BMP280;56526;55.406;86.130;2022-10-16T19:28:51;98530.56;;;7.71
69364;BMP280;56526;55.406;86.130;2022-10-16T19:31:19;98522.19;;;7.69
69364;BMP280;56526;55.406;86.130;2022-10-16T19:33:52;98526.69;;;7.68
69364;BMP280;56526;55.406;86.130;2022-10-16T19:36:25;98524.66;;;7.65
69364;BMP280;56526;55.406;86.130;2022-10-16T19:38:56;98531.00;;;7.64
69364;BMP280;56526;55.406;86.130;2022-10-16T19:41:24;98529.16;;;7.65
69364;BMP280;56526;55.406;86.130;2022-10-16T19:43:52;98518.81;;;7.68
69364;BMP280;56526;55.406;86.130;2022-10-16T19:46:21;98523.44;;;7.71
69364;BMP280;56526;55.406;86.130;2022-10-16T19:49:02;98523.84;;;7.78
69364;BMP280;56526;55.406;86.130;2022-10-16T19:51:30;98519.84;;;7.81
69364;BMP280;56526;55.406;86.130;2022-10-16T19:53:59;98518.19;;;7.85
69364;BMP280;56526;55.406;86.130;2022-10-16T19:56:28;98509.22;;;7.86
69364;BMP280;56526;55.406;86.130;2022-10-16T19:58:57;98505.81;;;7.85
69364;BMP280;56526;55.406;86.130;2022-10-16T20:01:26;98514.78;;;7.84
69364;BMP280;56526;55.406;86.130;2022-10-16T20:03:53;98506.59;;;7.86
69364;BMP280;56526;55.406;86.130;2022-10-16T20:06:20;98504.44;;;7.88
69364;BMP280;56526;55.406;86.130;2022-10-16T20:08:48;98503.06;;;7.91
69364;BMP280;56526;55.406;86.130;2022-10-16T20:11:21;98502.28;;;7.90
69364;BMP280;56526;55.406;86.130;2022-10-16T20:13:49;98492.81;;;7.89
69364;BMP280;56526;55.406;86.130;2022-10-16T20:16:16;98489.41;;;7.88
69364;BMP280;56526;55.406;86.130;2022-10-16T20:18:44;98499.16;;;7.88
69364;BMP280;56526;55.406;86.130;2022-10-16T20:21:13;98492.03;;;7.88
69364;BMP280;56526;55.406;86.130;2022-10-16T20:23:42;98498.38;;;7.87
69364;BMP280;56526;55.406;86.130;2022-10-16T20:26:08;98485.50;;;7.86
69364;BMP280;56526;55.406;86.130;2022-10-16T20:28:34;98480.53;;;7.84
69364;BMP280;56526;55.406;86.130;2022-10-16T20:31:06;98477.72;;;7.81
69364;BMP280;56526;55.406;86.130;2022-10-16T20:33:34;98480.66;;;7.79
69364;BMP280;56526;55.406;86.130;2022-10-16T20:36:00;98471.19;;;7.78
69364;BMP280;56526;55.406;86.130;2022-10-16T20:38:26;98465.44;;;7.76
69364;BMP280;56526;55.406;86.130;2022-10-16T20:40:53;98471.00;;;7.75
69364;BMP280;56526;55.406;86.130;2022-10-16T20:43:19;98462.31;;;7.74
69364;BMP280;56526;55.406;86.130;2022-10-16T20:45:45;98463.41;;;7.73
69364;BMP280;56526;55.406;86.130;2022-10-16T20:48:12;98466.59;;;7.70
69364;BMP280;56526;55.406;86.130;2022-10-16T20:50:40;98460.88;;;7.68
69364;BMP280;56526;55.406;86.130;2022-10-16T20:53:07;98452.00;;;7.64
69364;BMP280;56526;55.406;86.130;2022-10-16T20:55:36;98445.44;;;7.62
69364;BMP280;56526;55.406;86.130;2022-10-16T20:58:04;98448.66;;;7.59
69364;BMP280;56526;55.406;86.130;2022-10-16T21:00:30;98443.25;;;7.55
69364;BMP280;56526;55.406;86.130;2022-10-16T21:02:57;98429.59;;;7.53
69364;BMP280;56526;55.406;86.130;2022-10-16T21:05:23;98432.03;;;7.49
69364;BMP280;56526;55.406;86.130;2022-10-16T21:07:50;98434.78;;;7.44
69364;BMP280;56526;55.406;86.130;2022-10-16T21:10:16;98433.22;;;7.43
69364;BMP280;56526;55.406;86.130;2022-10-16T21:12:42;98422.19;;;7.41
69364;BMP280;56526;55.406;86.130;2022-10-16T21:15:09;98415.97;;;7.37
69364;BMP280;56526;55.406;86.130;2022-10-16T21:17:35;98413.91;;;7.34
69364;BMP280;56526;55.406;86.130;2022-10-16T21:20:01;98411.88;;;7.31
69364;BMP280;56526;55.406;86.130;2022-10-16T21:22:29;98410.63;;;7.29
69364;BMP280;56526;55.406;86.130;2022-10-16T21:24:56;98395.41;;;7.26
69364;BMP280;56526;55.406;86.130;2022-10-16T21:27:22;98394.63;;;7.25
69364;BMP280;56526;55.406;86.130;2022-10-16T21:29:48;98392.28;;;7.23
69364;BMP280;56526;55.406;86.130;2022-10-16T21:32:16;98393.34;;;7.22
69364;BMP280;56526;55.406;86.130;2022-10-16T21:34:43;98394.44;;;7.21
69364;BMP280;56526;55.406;86.130;2022-10-16T21:37:09;98391.81;;;7.21
69364;BMP280;56526;55.406;86.130;2022-10-16T21:39:35;98388.84;;;7.23
69364;BMP280;56526;55.406;86.130;2022-10-16T21:42:01;98379.16;;;7.23
69364;BMP280;56526;55.406;86.130;2022-10-16T21:44:28;98372.81;;;7.24
69364;BMP280;56526;55.406;86.130;2022-10-16T21:46:54;98382.56;;;7.24
69364;BMP280;56526;55.406;86.130;2022-10-16T21:49:20;98382.56;;;7.24
69364;BMP280;56526;55.406;86.130;2022-10-16T21:51:48;98358.34;;;7.22
69364;BMP280;56526;55.406;86.130;2022-10-16T21:54:20;98369.22;;;7.20
69364;BMP280;56526;55.406;86.130;2022-10-16T21:56:47;98370.28;;;7.19
69364;BMP280;56526;55.406;86.130;2022-10-16T21:59:14;98366.09;;;7.18
69364;BMP280;56526;55.406;86.130;2022-10-16T22:01:41;98346.13;;;7.17
69364;BMP280;56526;55.406;86.130;2022-10-16T22:04:12;98348.81;;;7.12
69364;BMP280;56526;55.406;86.130;2022-10-16T22:06:40;98345.25;;;7.08
69364;BMP280;56526;55.406;86.130;2022-10-16T22:09:07;98354.00;;;7.04
69364;BMP280;56526;55.406;86.130;2022-10-16T22:11:36;98366.66;;;7.02
69364;BMP280;56526;55.406;86.130;2022-10-16T22:14:07;98364.44;;;7.09
69364;BMP280;56526;55.406;86.130;2022-10-16T22:16:42;98356.94;;;7.16
69364;BMP280;56526;55.406;86.130;2022-10-16T22:19:10;98352.94;;;7.18
69364;BMP280;56526;55.406;86.130;2022-10-16T22:21:39;98355.66;;;7.13
69364;BMP280;56526;55.406;86.130;2022-10-16T22:24:07;98344.78;;;7.06
69364;BMP280;56526;55.406;86.130;2022-10-16T22:26:34;98349.34;;;7.01
69364;BMP280;56526;55.406;86.130;2022-10-16T22:29:02;98338.31;;;6.99
69364;BMP280;56526;55.406;86.130;2022-10-16T22:31:29;98319.47;;;6.97
69364;BMP280;56526;55.406;86.130;2022-10-16T22:34:00;98329.66;;;6.98
69364;BMP280;56526;55.406;86.130;2022-10-16T22:36:28;98329.06;;;7.01
69364;BMP280;56526;55.406;86.130;2022-10-16T22:38:54;98324.03;;;7.05
69364;BMP280;56526;55.406;86.130;2022-10-16T22:41:21;98330.56;;;7.07
69364;BMP280;56526;55.406;86.130;2022-10-16T22:43:48;98310.78;;;7.10
69364;BMP280;56526;55.406;86.130;2022-10-16T22:46:20;98296.13;;;7.17
69364;BMP280;56526;55.406;86.130;2022-10-16T22:48:48;98315.50;;;7.21
69364;BMP280;56526;55.406;86.130;2022-10-16T22:51:15;98313.63;;;7.22
69364;BMP280;56526;55.406;86.130;2022-10-16T22:53:41;98302.53;;;7.25
69364;BMP280;56526;55.406;86.130;2022-10-16T22:56:09;98305.94;;;7.26
69364;BMP280;56526;55.406;86.130;2022-10-16T22:58:36;98294.66;;;7.25
69364;BMP280;56526;55.406;86.130;2022-10-16T23:01:12;98315.41;;;7.27
69364;BMP280;56526;55.406;86.130;2022-10-16T23:03:43;98315.88;;;7.29
69364;BMP280;56526;55.406;86.130;2022-10-16T23:06:09;98319.19;;;7.34
69364;BMP280;56526;55.406;86.130;2022-10-16T23:08:36;98315.19;;;7.37
69364;BMP280;56526;55.406;86.130;2022-10-16T23:11:11;98311.66;;;7.41
69364;BMP280;56526;55.406;86.130;2022-10-16T23:13:40;98292.16;;;7.42
69364;BMP280;56526;55.406;86.130;2022-10-16T23:16:08;98301.63;;;7.43
69364;BMP280;56526;55.406;86.130;2022-10-16T23:18:35;98285.34;;;7.41
69364;BMP280;56526;55.406;86.130;2022-10-16T23:21:10;98287.69;;;7.43
69364;BMP280;56526;55.406;86.130;2022-10-16T23:23:42;98303.75;;;7.41
69364;BMP280;56526;55.406;86.130;2022-10-16T23:26:23;98299.88;;;7.39
69364;BMP280;56526;55.406;86.130;2022-10-16T23:28:50;98293.81;;;7.38
69364;BMP280;56526;55.406;86.130;2022-10-16T23:31:16;98278.03;;;7.38
69364;BMP280;56526;55.406;86.130;2022-10-16T23:33:44;98277.56;;;7.36
69364;BMP280;56526;55.406;86.130;2022-10-16T23:36:13;98285.28;;;7.33
69364;BMP280;56526;55.406;86.130;2022-10-16T23:38:40;98288.00;;;7.28
69364;BMP280;56526;55.406;86.130;2022-10-16T23:41:07;98283.94;;;7.21
69364;BMP280;56526;55.406;86.130;2022-10-16T23:43:33;98279.34;;;7.13
69364;BMP280;56526;55.406;86.130;2022-10-16T23:46:00;98285.06;;;7.07
69364;BMP280;56526;55.406;86.130;2022-10-16T23:48:26;98269.94;;;6.99
69364;BMP280;56526;55.406;86.130;2022-10-16T23:50:53;98277.69;;;6.95
69364;BMP280;56526;55.406;86.130;2022-10-16T23:53:19;98272.97;;;6.92
69364;BMP280;56526;55.406;86.130;2022-10-16T23:55:46;98259.84;;;6.92
69364;BMP280;56526;55.406;86.130;2022-10-16T23:58:12;98273.34;;;6.99
